^^
Datos históricos de la estación: Murcia-Puente Tocinos
Diario Informe para Noviembre 12, 2019 Unidades:  Ambas    Ingés   Métrico
Diario Semanal Mensual Anual
  Máxima: Mínima: Promedio:
Temperatura: 65.7 °F /  18.7 °C 53.2 °F /  11.8 °C 59.2 °F /  15.1 °C
Punto de rocio: 42.4 °F /  5.8 °C 32.9 °F /  0.5 °C 36 °F /  2.2 °C
Humedad: 55.3% 31% 43%
Velocidad viento: 16.8mph /  27km/h - 8.1mph /  13.1km/h
Racha viento: 32.2mph /  51.8km/h - -
Viento- - Oeste
Presión: 29.9 in /  1012.9 hPa 29.8 in /  1009.8 hPa -
Precipitación: 0 in /  0.0 mm    
 
 
Tabla de datos para Noviembre 12, 2019
Hora Temperatura Punto de rocio Presión Viento Velocidad viento Racha viento Humedad Intensidad lluvia(por hora) Nubes
00:04 58.6 °F /  14.8 °C 42.4 °F /  5.8 °C 29.9in /  1012.4hPa ONO 9.8mph /  15.7km/h 18.4mph /  29.6km/h 55% 0in /  0.0mm
00:09 58.6 °F /  14.8 °C 42.3 °F /  5.7 °C 29.9in /  1012.4hPa Oeste 10mph /  16.1km/h 20.7mph /  33.3km/h 54.3% 0in /  0.0mm
00:14 58.6 °F /  14.8 °C 42.1 °F /  5.6 °C 29.9in /  1012.3hPa Oeste 11.2mph /  18km/h 21mph /  33.8km/h 54% 0in /  0.0mm
00:19 58.6 °F /  14.8 °C 42.1 °F /  5.6 °C 29.9in /  1012.3hPa Oeste 11.8mph /  19km/h 19mph /  30.6km/h 54% 0in /  0.0mm
00:24 58.6 °F /  14.8 °C 42.1 °F /  5.6 °C 29.9in /  1012.3hPa Oeste 11.4mph /  18.4km/h 18mph /  29km/h 54% 0in /  0.0mm
00:29 58.6 °F /  14.8 °C 41.9 °F /  5.5 °C 29.9in /  1012.3hPa Oeste 11.2mph /  18km/h 16mph /  25.7km/h 54% 0in /  0.0mm
00:34 58.5 °F /  14.7 °C 42.1 °F /  5.6 °C 29.9in /  1012.3hPa Oeste 9.5mph /  15.3km/h 15mph /  24.1km/h 54.6% 0in /  0.0mm
00:39 58.3 °F /  14.6 °C 42.3 °F /  5.7 °C 29.9in /  1012.7hPa ONO 8.5mph /  13.7km/h 13.8mph /  22.2km/h 55% 0in /  0.0mm
00:44 58.1 °F /  14.5 °C 41.9 °F /  5.5 °C 29.9in /  1012.7hPa ONO 7.5mph /  12km/h 14mph /  22.5km/h 55% 0in /  0.0mm
00:49 57.7 °F /  14.3 °C 41.9 °F /  5.5 °C 29.9in /  1012.7hPa Oeste 6.9mph /  11.1km/h 15.2mph /  24.5km/h 55.3% 0in /  0.0mm
00:54 57.7 °F /  14.3 °C 41.7 °F /  5.4 °C 29.9in /  1012.7hPa Oeste 7.6mph /  12.3km/h 15mph /  24.1km/h 55% 0in /  0.0mm
00:59 57.7 °F /  14.3 °C 41.7 °F /  5.4 °C 29.9in /  1012.3hPa Oeste 8.1mph /  13km/h 17.5mph /  28.2km/h 55% 0in /  0.0mm
01:04 57.7 °F /  14.3 °C 41.7 °F /  5.4 °C 29.9in /  1012.3hPa Oeste 9.4mph /  15.2km/h 21.9mph /  35.2km/h 55% 0in /  0.0mm
01:09 57.9 °F /  14.4 °C 41.7 °F /  5.4 °C 29.9in /  1012.3hPa Oeste 10.2mph /  16.4km/h 22mph /  35.4km/h 55% 0in /  0.0mm
01:14 57.9 °F /  14.4 °C 41.7 °F /  5.4 °C 29.9in /  1012.1hPa Oeste 11mph /  17.7km/h 23mph /  37km/h 55% 0in /  0.0mm
01:19 57.7 °F /  14.3 °C 41.7 °F /  5.4 °C 29.9in /  1012.1hPa Oeste 11.4mph /  18.4km/h 16mph /  25.7km/h 55% 0in /  0.0mm
01:22 57.7 °F /  14.3 °C 41.7 °F /  5.4 °C 29.9in /  1012.2hPa OSO 9.7mph /  15.6km/h 14mph /  22.5km/h 55% 0in /  0.0mm
01:29 57.7 °F /  14.3 °C 41.7 °F /  5.4 °C 29.9in /  1012.2hPa SO 6.9mph /  11.1km/h 11.5mph /  18.5km/h 55% 0in /  0.0mm
01:34 57.7 °F /  14.3 °C 41.7 °F /  5.4 °C 29.9in /  1012.2hPa OSO 5.5mph /  8.9km/h 12mph /  19.3km/h 55% 0in /  0.0mm
01:39 57.7 °F /  14.3 °C 41.7 °F /  5.4 °C 29.9in /  1012.2hPa SSO 4.7mph /  7.6km/h 7.6mph /  12.2km/h 55% 0in /  0.0mm
01:44 57.7 °F /  14.3 °C 41.7 °F /  5.4 °C 29.9in /  1012.2hPa SSO 4.3mph /  6.9km/h 8.1mph /  13km/h 55% 0in /  0.0mm
01:49 57.6 °F /  14.2 °C 41.5 °F /  5.3 °C 29.9in /  1012.2hPa SO 4mph /  6.5km/h 6mph /  9.7km/h 55% 0in /  0.0mm
01:54 57.6 °F /  14.2 °C 41.5 °F /  5.3 °C 29.9in /  1012.2hPa SO 3.3mph /  5.3km/h 5.2mph /  8.4km/h 55% 0in /  0.0mm
01:59 57.6 °F /  14.2 °C 41.5 °F /  5.3 °C 29.9in /  1012.1hPa NNO 2.9mph /  4.7km/h 5mph /  8km/h 55% 0in /  0.0mm
02:04 57.4 °F /  14.1 °C 41.4 °F /  5.2 °C 29.9in /  1012.1hPa Sur 2.5mph /  4.1km/h 6.9mph /  11.1km/h 55% 0in /  0.0mm
02:09 57.2 °F /  14 °C 41.2 °F /  5.1 °C 29.9in /  1012.1hPa SSO 2.4mph /  3.9km/h 7mph /  11.3km/h 55% 0in /  0.0mm
02:14 57 °F /  13.9 °C 41 °F /  5 °C 29.9in /  1011.9hPa SO 3.4mph /  5.5km/h 10.2mph /  16.4km/h 55% 0in /  0.0mm
02:19 57 °F /  13.9 °C 40.8 °F /  4.9 °C 29.9in /  1011.9hPa Oeste 4mph /  6.5km/h 10.4mph /  16.7km/h 54.8% 0in /  0.0mm
02:24 57 °F /  13.9 °C 40.6 °F /  4.8 °C 29.9in /  1012.2hPa OSO 4.5mph /  7.2km/h 10mph /  16.1km/h 54.1% 0in /  0.0mm
02:29 56.8 °F /  13.8 °C 40.5 °F /  4.7 °C 29.9in /  1012.2hPa Oeste 4.7mph /  7.6km/h 10mph /  16.1km/h 54% 0in /  0.0mm
02:34 56.8 °F /  13.8 °C 40.3 °F /  4.6 °C 29.9in /  1012.2hPa Oeste 4.5mph /  7.2km/h 10.7mph /  17.2km/h 54% 0in /  0.0mm
02:39 56.7 °F /  13.7 °C 40.1 °F /  4.5 °C 29.9in /  1012.2hPa Oeste 4.3mph /  6.9km/h 11mph /  17.7km/h 54% 0in /  0.0mm
02:44 56.5 °F /  13.6 °C 39.9 °F /  4.4 °C 29.9in /  1012.2hPa Oeste 5mph /  8km/h 10.4mph /  16.7km/h 53.8% 0in /  0.0mm
02:49 56.3 °F /  13.5 °C 39.4 °F /  4.1 °C 29.9in /  1012.2hPa Oeste 5.4mph /  8.7km/h 10.7mph /  17.2km/h 53% 0in /  0.0mm
02:54 56.1 °F /  13.4 °C 39.4 °F /  4.1 °C 29.9in /  1012.2hPa Oeste 5.3mph /  8.5km/h 11mph /  17.7km/h 53.3% 0in /  0.0mm
02:59 56.1 °F /  13.4 °C 39.2 °F /  4 °C 29.9in /  1012.1hPa Oeste 5.2mph /  8.4km/h 10.4mph /  16.7km/h 53% 0in /  0.0mm
03:04 56.1 °F /  13.4 °C 39 °F /  3.9 °C 29.9in /  1012.1hPa OSO 5.3mph /  8.6km/h 11.8mph /  19km/h 52.6% 0in /  0.0mm
03:09 56.1 °F /  13.4 °C 38.7 °F /  3.7 °C 29.9in /  1012.1hPa Oeste 5.4mph /  8.7km/h 15mph /  24.1km/h 52% 0in /  0.0mm
03:14 55.9 °F /  13.3 °C 38.1 °F /  3.4 °C 29.9in /  1012.0hPa Oeste 5mph /  8km/h 17.3mph /  27.8km/h 51% 0in /  0.0mm
03:19 56.1 °F /  13.4 °C 37.8 °F /  3.2 °C 29.9in /  1012.0hPa Oeste 4.7mph /  7.6km/h 17.3mph /  27.8km/h 50% 0in /  0.0mm
03:24 56.3 °F /  13.5 °C 37.9 °F /  3.3 °C 29.9in /  1012.1hPa Oeste 7.8mph /  12.6km/h 18.5mph /  29.8km/h 50% 0in /  0.0mm
03:29 56.1 °F /  13.4 °C 37.4 °F /  3 °C 29.9in /  1012.1hPa OSO 9.7mph /  15.6km/h 19mph /  30.6km/h 49.3% 0in /  0.0mm
03:34 56.1 °F /  13.4 °C 37.4 °F /  3 °C 29.9in /  1012.1hPa OSO 8mph /  12.8km/h 13mph /  20.9km/h 49.3% 0in /  0.0mm
03:39 55.9 °F /  13.3 °C 37.4 °F /  3 °C 29.9in /  1012.1hPa OSO 6.9mph /  11.1km/h 13mph /  20.9km/h 49.8% 0in /  0.0mm
03:44 55.8 °F /  13.2 °C 37 °F /  2.8 °C 29.9in /  1012.0hPa Oeste 6mph /  9.6km/h 18.5mph /  29.8km/h 49.4% 0in /  0.0mm
03:49 55.8 °F /  13.2 °C 36.9 °F /  2.7 °C 29.9in /  1012.0hPa OSO 5.4mph /  8.7km/h 19mph /  30.6km/h 49% 0in /  0.0mm
03:54 55.8 °F /  13.2 °C 36.7 °F /  2.6 °C 29.9in /  1012.0hPa Oeste 6.6mph /  10.7km/h 20.7mph /  33.3km/h 48.7% 0in /  0.0mm
03:59 55.8 °F /  13.2 °C 36.3 °F /  2.4 °C 29.9in /  1011.5hPa OSO 7.4mph /  11.9km/h 21mph /  33.8km/h 48% 0in /  0.0mm
04:04 55.8 °F /  13.2 °C 36.3 °F /  2.4 °C 29.9in /  1011.5hPa Oeste 7.1mph /  11.4km/h 12mph /  19.3km/h 48% 0in /  0.0mm
04:09 55.6 °F /  13.1 °C 36.5 °F /  2.5 °C 29.9in /  1011.5hPa OSO 6.9mph /  11.1km/h 13.8mph /  22.2km/h 48.4% 0in /  0.0mm
04:14 55.6 °F /  13.1 °C 36.7 °F /  2.6 °C 29.9in /  1011.5hPa SSE 5.3mph /  8.5km/h 14mph /  22.5km/h 49% 0in /  0.0mm
04:19 55.4 °F /  13 °C 36.5 °F /  2.5 °C 29.9in /  1011.5hPa SSO 4.3mph /  6.9km/h 11.5mph /  18.5km/h 49% 0in /  0.0mm
04:24 55.4 °F /  13 °C 36.5 °F /  2.5 °C 29.9in /  1011.5hPa Sur 4.5mph /  7.3km/h 12mph /  19.3km/h 49% 0in /  0.0mm
04:29 55.2 °F /  12.9 °C 36.3 °F /  2.4 °C 29.9in /  1011.4hPa SO 4.7mph /  7.6km/h 11.2mph /  18km/h 49% 0in /  0.0mm
04:34 55.2 °F /  12.9 °C 36.3 °F /  2.4 °C 29.9in /  1011.4hPa SO 4.7mph /  7.6km/h 17.5mph /  28.2km/h 49% 0in /  0.0mm
04:39 55.2 °F /  12.9 °C 36.1 °F /  2.3 °C 29.9in /  1011.7hPa SO 4.7mph /  7.6km/h 17mph /  27.4km/h 48.5% 0in /  0.0mm
04:44 55.2 °F /  12.9 °C 36 °F /  2.2 °C 29.9in /  1011.7hPa SO 6.1mph /  9.8km/h 18.4mph /  29.6km/h 48% 0in /  0.0mm
04:49 55.2 °F /  12.9 °C 36 °F /  2.2 °C 29.9in /  1011.7hPa OSO 6.9mph /  11.1km/h 18mph /  29km/h 48% 0in /  0.0mm
04:54 55 °F /  12.8 °C 35.8 °F /  2.1 °C 29.9in /  1011.8hPa Oeste 6mph /  9.6km/h 15.2mph /  24.5km/h 48% 0in /  0.0mm
04:59 54.9 °F /  12.7 °C 36 °F /  2.2 °C 29.9in /  1011.8hPa Oeste 5.4mph /  8.7km/h 21.3mph /  34.3km/h 48.9% 0in /  0.0mm
05:04 54.7 °F /  12.6 °C 36 °F /  2.2 °C 29.9in /  1011.8hPa Oeste 8.3mph /  13.3km/h 23mph /  37km/h 49% 0in /  0.0mm
05:09 54.7 °F /  12.6 °C 36 °F /  2.2 °C 29.9in /  1011.8hPa Oeste 9.7mph /  15.6km/h 23mph /  37km/h 49% 0in /  0.0mm
05:14 54.5 °F /  12.5 °C 35.8 °F /  2.1 °C 29.9in /  1011.7hPa Oeste 12.2mph /  19.6km/h 24.2mph /  38.9km/h 49% 0in /  0.0mm
05:19 54.3 °F /  12.4 °C 35.6 °F /  2 °C 29.9in /  1011.7hPa Oeste 13.7mph /  22.1km/h 25.3mph /  40.7km/h 49% 0in /  0.0mm
05:24 54.1 °F /  12.3 °C 35.4 °F /  1.9 °C 29.9in /  1011.7hPa Oeste 13mph /  20.9km/h 25mph /  40.2km/h 49% 0in /  0.0mm
05:29 54 °F /  12.2 °C 35.8 °F /  2.1 °C 29.9in /  1011.5hPa Oeste 12.5mph /  20.1km/h 20.7mph /  33.3km/h 49.9% 0in /  0.0mm
05:34 54 °F /  12.2 °C 35.8 °F /  2.1 °C 29.9in /  1011.5hPa Oeste 12.1mph /  19.4km/h 21mph /  33.8km/h 50% 0in /  0.0mm
05:39 54 °F /  12.2 °C 35.8 °F /  2.1 °C 29.9in /  1011.5hPa Oeste 11.8mph /  19km/h 19mph /  30.6km/h 50% 0in /  0.0mm
05:44 54 °F /  12.2 °C 35.6 °F /  2 °C 29.9in /  1011.5hPa Oeste 10.8mph /  17.4km/h 19mph /  30.6km/h 50% 0in /  0.0mm
05:49 53.8 °F /  12.1 °C 35.6 °F /  2 °C 29.9in /  1011.5hPa Oeste 10.2mph /  16.4km/h 18.4mph /  29.6km/h 49.8% 0in /  0.0mm
05:54 53.8 °F /  12.1 °C 35.1 °F /  1.7 °C 29.9in /  1011.7hPa Oeste 10.1mph /  16.2km/h 19.6mph /  31.5km/h 49% 0in /  0.0mm
05:59 53.8 °F /  12.1 °C 35.1 °F /  1.7 °C 29.9in /  1011.7hPa OSO 10mph /  16.1km/h 20mph /  32.2km/h 49% 0in /  0.0mm
06:04 54 °F /  12.2 °C 35.2 °F /  1.8 °C 29.9in /  1011.7hPa OSO 9.8mph /  15.8km/h 18mph /  29km/h 49% 0in /  0.0mm
06:09 54 °F /  12.2 °C 35.2 °F /  1.8 °C 29.9in /  1012.0hPa OSO 9.7mph /  15.6km/h 17mph /  27.4km/h 49% 0in /  0.0mm
06:14 54 °F /  12.2 °C 34.7 °F /  1.5 °C 29.9in /  1012.0hPa OSO 8.9mph /  14.4km/h 13mph /  20.9km/h 48% 0in /  0.0mm
06:19 54 °F /  12.2 °C 34.9 °F /  1.6 °C 29.9in /  1012.0hPa OSO 8.5mph /  13.7km/h 13mph /  20.9km/h 48.4% 0in /  0.0mm
06:24 53.6 °F /  12 °C 34.9 °F /  1.6 °C 29.9in /  1012.0hPa OSO 7mph /  11.3km/h 13mph /  20.9km/h 49% 0in /  0.0mm
06:29 53.2 °F /  11.8 °C 34.7 °F /  1.5 °C 29.9in /  1012.0hPa Oeste 6.2mph /  10km/h 15.2mph /  24.5km/h 49% 0in /  0.0mm
06:34 53.2 °F /  11.8 °C 34.5 °F /  1.4 °C 29.9in /  1012.0hPa Oeste 6.6mph /  10.7km/h 17.3mph /  27.8km/h 49% 0in /  0.0mm
06:39 53.4 °F /  11.9 °C 34.7 °F /  1.5 °C 29.9in /  1012.0hPa Oeste 6.9mph /  11.1km/h 17mph /  27.4km/h 49% 0in /  0.0mm
06:44 53.4 °F /  11.9 °C 34.7 °F /  1.5 °C 29.9in /  1011.6hPa Oeste 6.9mph /  11.1km/h 14mph /  22.5km/h 48.9% 0in /  0.0mm
06:49 53.4 °F /  11.9 °C 34.2 °F /  1.2 °C 29.9in /  1011.6hPa Oeste 6.9mph /  11.1km/h 18.4mph /  29.6km/h 48.1% 0in /  0.0mm
06:54 53.4 °F /  11.9 °C 34.2 °F /  1.2 °C 29.9in /  1011.6hPa ONO 7.9mph /  12.7km/h 18mph /  29km/h 48% 0in /  0.0mm
06:59 53.4 °F /  11.9 °C 34.2 °F /  1.2 °C 29.9in /  1011.6hPa ONO 8.5mph /  13.7km/h 16mph /  25.7km/h 48% 0in /  0.0mm
07:04 53.4 °F /  11.9 °C 34.2 °F /  1.2 °C 29.9in /  1011.6hPa ONO 7.1mph /  11.4km/h 15mph /  24.1km/h 48% 0in /  0.0mm
07:09 53.4 °F /  11.9 °C 34.2 °F /  1.2 °C 29.9in /  1011.8hPa Oeste 6.4mph /  10.3km/h 12mph /  19.3km/h 48% 0in /  0.0mm
07:14 53.4 °F /  11.9 °C 34.2 °F /  1.2 °C 29.9in /  1011.8hPa Oeste 5.3mph /  8.6km/h 10mph /  16.1km/h 48% 0in /  0.0mm
07:19 53.4 °F /  11.9 °C 34 °F /  1.1 °C 29.9in /  1011.8hPa Oeste 4.7mph /  7.6km/h 13mph /  20.9km/h 47.4% 0in /  0.0mm
07:24 53.6 °F /  12 °C 33.8 °F /  1 °C 29.9in /  1011.9hPa ONO 5.8mph /  9.3km/h 13.8mph /  22.2km/h 47% 0in /  0.0mm
07:29 53.8 °F /  12.1 °C 34 °F /  1.1 °C 29.9in /  1011.9hPa ONO 6.4mph /  10.3km/h 15.2mph /  24.5km/h 47% 0in /  0.0mm
07:34 53.8 °F /  12.1 °C 33.6 °F /  0.9 °C 29.9in /  1011.9hPa ONO 7.2mph /  11.6km/h 15mph /  24.1km/h 46.2% 0in /  0.0mm
07:39 54 °F /  12.2 °C 33.6 °F /  0.9 °C 29.9in /  1012.1hPa ONO 7.6mph /  12.2km/h 15mph /  24.1km/h 46% 0in /  0.0mm
07:44 54 °F /  12.2 °C 33.6 °F /  0.9 °C 29.9in /  1012.1hPa ONO 7.9mph /  12.7km/h 21.9mph /  35.2km/h 46% 0in /  0.0mm
07:49 54 °F /  12.2 °C 33.6 °F /  0.9 °C 29.9in /  1012.1hPa ONO 8.1mph /  13km/h 22mph /  35.4km/h 46% 0in /  0.0mm
07:54 54.1 °F /  12.3 °C 33.8 °F /  1 °C 29.9in /  1012.2hPa ONO 8.8mph /  14.1km/h 18.4mph /  29.6km/h 46% 0in /  0.0mm
07:59 54.1 °F /  12.3 °C 33.6 °F /  0.9 °C 29.9in /  1012.2hPa Oeste 9.2mph /  14.8km/h 19.6mph /  31.5km/h 45.7% 0in /  0.0mm
08:04 54.1 °F /  12.3 °C 33.3 °F /  0.7 °C 29.9in /  1012.2hPa ONO 10.6mph /  17.1km/h 23mph /  37km/h 45% 0in /  0.0mm
08:09 54.3 °F /  12.4 °C 33.4 °F /  0.8 °C 29.9in /  1012.2hPa ONO 11.4mph /  18.4km/h 23mph /  37km/h 45% 0in /  0.0mm
08:14 54.5 °F /  12.5 °C 33.1 °F /  0.6 °C 29.9in /  1012.0hPa ONO 11.7mph /  18.8km/h 21.9mph /  35.2km/h 44.2% 0in /  0.0mm
08:19 54.7 °F /  12.6 °C 33.1 °F /  0.6 °C 29.9in /  1012.0hPa ONO 11.8mph /  19km/h 22mph /  35.4km/h 44% 0in /  0.0mm
08:24 54.7 °F /  12.6 °C 33.3 °F /  0.7 °C 29.9in /  1012.5hPa ONO 10.6mph /  17.1km/h 21.9mph /  35.2km/h 44% 0in /  0.0mm
08:29 54.9 °F /  12.7 °C 33.3 °F /  0.7 °C 29.9in /  1012.5hPa Oeste 10mph /  16.1km/h 22mph /  35.4km/h 44% 0in /  0.0mm
08:34 54.9 °F /  12.7 °C 32.9 °F /  0.5 °C 29.9in /  1012.5hPa ONO 11.1mph /  17.9km/h 22.3mph /  35.9km/h 43.1% 0in /  0.0mm
08:39 55 °F /  12.8 °C 32.9 °F /  0.5 °C 29.9in /  1012.5hPa ONO 11.8mph /  19km/h 22mph /  35.4km/h 43% 0in /  0.0mm
08:44 55 °F /  12.8 °C 32.9 °F /  0.5 °C 29.9in /  1012.3hPa ONO 11.1mph /  17.9km/h 20mph /  32.2km/h 43% 0in /  0.0mm
08:49 55 °F /  12.8 °C 32.9 °F /  0.5 °C 29.9in /  1012.3hPa ONO 10.7mph /  17.2km/h 23.5mph /  37.8km/h 43% 0in /  0.0mm
08:54 55.2 °F /  12.9 °C 33.1 °F /  0.6 °C 29.9in /  1012.5hPa ONO 11.7mph /  18.8km/h 23mph /  37km/h 43% 0in /  0.0mm
08:59 55.2 °F /  12.9 °C 33.1 °F /  0.6 °C 29.9in /  1012.5hPa ONO 12.3mph /  19.8km/h 18.4mph /  29.6km/h 43% 0in /  0.0mm
09:04 55.4 °F /  13 °C 33.3 °F /  0.7 °C 29.9in /  1012.5hPa ONO 11.6mph /  18.6km/h 21.5mph /  34.6km/h 43% 0in /  0.0mm
09:09 55.6 °F /  13.1 °C 33.4 °F /  0.8 °C 29.9in /  1012.5hPa ONO 11.2mph /  18km/h 24.2mph /  38.9km/h 43% 0in /  0.0mm
09:14 55.8 °F /  13.2 °C 33.4 °F /  0.8 °C 29.9in /  1012.3hPa ONO 12.7mph /  20.4km/h 24mph /  38.6km/h 43% 0in /  0.0mm
09:19 55.8 °F /  13.2 °C 33.6 °F /  0.9 °C 29.9in /  1012.3hPa Oeste 13.5mph /  21.7km/h 21mph /  33.8km/h 43% 0in /  0.0mm
09:24 55.9 °F /  13.3 °C 33.6 °F /  0.9 °C 29.9in /  1012.3hPa ONO 12.2mph /  19.6km/h 19mph /  30.6km/h 42.8% 0in /  0.0mm
09:29 55.9 °F /  13.3 °C 33.8 °F /  1 °C 29.9in /  1012.2hPa Oeste 11.4mph /  18.4km/h 18mph /  29km/h 43% 0in /  0.0mm
09:34 56.1 °F /  13.4 °C 34 °F /  1.1 °C 29.9in /  1012.2hPa Oeste 10.1mph /  16.2km/h 15mph /  24.1km/h 43% 0in /  0.0mm
09:39 56.3 °F /  13.5 °C 34.2 °F /  1.2 °C 29.9in /  1012.2hPa Oeste 9.2mph /  14.8km/h 20.4mph /  32.8km/h 43% 0in /  0.0mm
09:44 56.5 °F /  13.6 °C 33.8 °F /  1 °C 29.9in /  1012.2hPa Oeste 8.5mph /  13.7km/h 21mph /  33.8km/h 42.4% 0in /  0.0mm
09:49 56.5 °F /  13.6 °C 33.6 °F /  0.9 °C 29.9in /  1012.2hPa ONO 8.1mph /  13km/h 21mph /  33.8km/h 42% 0in /  0.0mm
09:54 56.7 °F /  13.7 °C 33.8 °F /  1 °C 29.9in /  1012.5hPa Oeste 8.3mph /  13.4km/h 17.3mph /  27.8km/h 42% 0in /  0.0mm
09:59 56.8 °F /  13.8 °C 34 °F /  1.1 °C 29.9in /  1012.5hPa Oeste 8.5mph /  13.7km/h 17.5mph /  28.2km/h 42% 0in /  0.0mm
10:04 56.8 °F /  13.8 °C 33.8 °F /  1 °C 29.9in /  1012.5hPa Oeste 8.5mph /  13.7km/h 17mph /  27.4km/h 41.8% 0in /  0.0mm
10:09 57 °F /  13.9 °C 33.8 °F /  1 °C 29.9in /  1012.6hPa Oeste 8.5mph /  13.7km/h 19mph /  30.6km/h 41.6% 0in /  0.0mm
10:14 57.2 °F /  14 °C 33.8 °F /  1 °C 29.9in /  1012.6hPa Oeste 9.3mph /  14.9km/h 19.2mph /  30.9km/h 41.1% 0in /  0.0mm
10:19 57.6 °F /  14.2 °C 34 °F /  1.1 °C 29.9in /  1012.6hPa Oeste 9.7mph /  15.6km/h 20mph /  32.2km/h 41% 0in /  0.0mm
10:24 57.6 °F /  14.2 °C 34 °F /  1.1 °C 29.9in /  1012.6hPa Oeste 8.7mph /  14km/h 14mph /  22.5km/h 41% 0in /  0.0mm
10:29 57.7 °F /  14.3 °C 34.2 °F /  1.2 °C 29.9in /  1012.6hPa Oeste 8.1mph /  13km/h 20.7mph /  33.3km/h 40.7% 0in /  0.0mm
10:34 57.9 °F /  14.4 °C 34 °F /  1.1 °C 29.9in /  1012.6hPa ONO 8.3mph /  13.4km/h 21mph /  33.8km/h 40.4% 0in /  0.0mm
10:39 58.3 °F /  14.6 °C 33.6 °F /  0.9 °C 29.9in /  1012.6hPa Oeste 8.5mph /  13.7km/h 20.8mph /  33.5km/h 39.4% 0in /  0.0mm
10:44 58.3 °F /  14.6 °C 33.4 °F /  0.8 °C 29.9in /  1012.6hPa Oeste 9.4mph /  15.2km/h 21mph /  33.8km/h 39.1% 0in /  0.0mm
10:49 58.5 °F /  14.7 °C 34 °F /  1.1 °C 29.9in /  1012.6hPa ONO 10mph /  16.1km/h 20mph /  32.2km/h 39.6% 0in /  0.0mm
10:54 58.6 °F /  14.8 °C 33.8 °F /  1 °C 29.9in /  1012.8hPa ONO 10mph /  16.1km/h 18.5mph /  29.8km/h 39% 0in /  0.0mm
10:59 58.8 °F /  14.9 °C 34 °F /  1.1 °C 29.9in /  1012.8hPa ONO 10mph /  16.1km/h 21.3mph /  34.3km/h 39% 0in /  0.0mm
11:04 59 °F /  15 °C 34.2 °F /  1.2 °C 29.9in /  1012.8hPa ONO 10.4mph /  16.8km/h 21mph /  33.8km/h 39% 0in /  0.0mm
11:09 59.4 °F /  15.2 °C 34.3 °F /  1.3 °C 29.9in /  1012.9hPa ONO 10.7mph /  17.2km/h 21mph /  33.8km/h 39% 0in /  0.0mm
11:14 59.4 °F /  15.2 °C 34.9 °F /  1.6 °C 29.9in /  1012.9hPa Oeste 10.3mph /  16.5km/h 18mph /  29km/h 39.6% 0in /  0.0mm
11:19 59.7 °F /  15.4 °C 34.7 °F /  1.5 °C 29.9in /  1012.9hPa ONO 10mph /  16.1km/h 15mph /  24.1km/h 39% 0in /  0.0mm
11:24 59.9 °F /  15.5 °C 35.1 °F /  1.7 °C 29.9in /  1012.9hPa ONO 8.8mph /  14.1km/h 19mph /  30.6km/h 39.3% 0in /  0.0mm
11:29 60.1 °F /  15.6 °C 35.1 °F /  1.7 °C 29.9in /  1012.7hPa ONO 8.1mph /  13km/h 19mph /  30.6km/h 39% 0in /  0.0mm
11:34 60.3 °F /  15.7 °C 35.1 °F /  1.7 °C 29.9in /  1012.7hPa Oeste 9.1mph /  14.7km/h 16.1mph /  25.9km/h 39% 0in /  0.0mm
11:39 60.4 °F /  15.8 °C 34.9 °F /  1.6 °C 29.9in /  1012.7hPa ONO 9.7mph /  15.6km/h 18.5mph /  29.8km/h 38.4% 0in /  0.0mm
11:44 60.4 °F /  15.8 °C 35.1 °F /  1.7 °C 29.9in /  1012.5hPa ONO 9.9mph /  15.9km/h 19mph /  30.6km/h 38.3% 0in /  0.0mm
11:49 60.8 °F /  16 °C 35.1 °F /  1.7 °C 29.9in /  1012.5hPa ONO 10mph /  16.1km/h 18mph /  29km/h 38% 0in /  0.0mm
11:54 61.2 °F /  16.2 °C 35.2 °F /  1.8 °C 29.9in /  1012.5hPa Oeste 10.1mph /  16.3km/h 17mph /  27.4km/h 37.9% 0in /  0.0mm
11:59 61.2 °F /  16.2 °C 34.9 °F /  1.6 °C 29.9in /  1012.3hPa ONO 10.2mph /  16.4km/h 21.3mph /  34.3km/h 37.3% 0in /  0.0mm
12:04 61.3 °F /  16.3 °C 34.7 °F /  1.5 °C 29.9in /  1012.3hPa Oeste 10.9mph /  17.5km/h 21mph /  33.8km/h 36.9% 0in /  0.0mm
12:09 61.5 °F /  16.4 °C 34.2 °F /  1.2 °C 29.9in /  1012.3hPa ONO 11.2mph /  18km/h 21.9mph /  35.2km/h 35.9% 0in /  0.0mm
12:14 61.5 °F /  16.4 °C 34.3 °F /  1.3 °C 29.9in /  1012.1hPa ONO 12.4mph /  19.9km/h 22mph /  35.4km/h 36% 0in /  0.0mm
12:19 62.1 °F /  16.7 °C 34.7 °F /  1.5 °C 29.9in /  1012.1hPa ONO 13mph /  20.9km/h 18.4mph /  29.6km/h 36% 0in /  0.0mm
12:24 62.4 °F /  16.9 °C 34.5 °F /  1.4 °C 29.9in /  1012.1hPa NO 10.2mph /  16.4km/h 17.3mph /  27.8km/h 35.3% 0in /  0.0mm
12:29 62.6 °F /  17 °C 34.5 °F /  1.4 °C 29.9in /  1011.8hPa ONO 8.5mph /  13.7km/h 21.9mph /  35.2km/h 35% 0in /  0.0mm
12:34 62.8 °F /  17.1 °C 34.5 °F /  1.4 °C 29.9in /  1011.8hPa ONO 10.2mph /  16.4km/h 22mph /  35.4km/h 35% 0in /  0.0mm
12:39 62.8 °F /  17.1 °C 34.7 °F /  1.5 °C 29.9in /  1011.8hPa ONO 11.2mph /  18km/h 25.6mph /  41.2km/h 35% 0in /  0.0mm
12:44 62.8 °F /  17.1 °C 34.5 °F /  1.4 °C 29.9in /  1011.5hPa NO 12.8mph /  20.6km/h 26mph /  41.8km/h 34.8% 0in /  0.0mm
12:49 63.1 °F /  17.3 °C 34.9 °F /  1.6 °C 29.9in /  1011.5hPa ONO 13.7mph /  22.1km/h 25.3mph /  40.7km/h 34.8% 0in /  0.0mm
12:54 63.1 °F /  17.3 °C 34.3 °F /  1.3 °C 29.9in /  1011.5hPa ONO 14.2mph /  22.9km/h 28.8mph /  46.3km/h 34% 0in /  0.0mm
12:59 63.1 °F /  17.3 °C 34.3 °F /  1.3 °C 29.9in /  1011.3hPa ONO 14.5mph /  23.3km/h 29mph /  46.7km/h 34% 0in /  0.0mm
13:04 63.3 °F /  17.4 °C 34.3 °F /  1.3 °C 29.9in /  1011.3hPa ONO 15.5mph /  24.9km/h 27.6mph /  44.4km/h 34% 0in /  0.0mm
13:09 63.3 °F /  17.4 °C 34.3 °F /  1.3 °C 29.9in /  1011.3hPa ONO 15.9mph /  25.6km/h 31.7mph /  51km/h 34% 0in /  0.0mm
13:14 63.3 °F /  17.4 °C 34 °F /  1.1 °C 29.9in /  1011.1hPa ONO 16.5mph /  26.5km/h 32.2mph /  51.8km/h 33.4% 0in /  0.0mm
13:19 63.5 °F /  17.5 °C 34.5 °F /  1.4 °C 29.9in /  1011.1hPa ONO 16.8mph /  27km/h 32mph /  51.5km/h 34% 0in /  0.0mm
13:24 63.7 °F /  17.6 °C 34.9 °F /  1.6 °C 29.9in /  1011.1hPa NO 14mph /  22.6km/h 22mph /  35.4km/h 34% 0in /  0.0mm
13:29 63.9 °F /  17.7 °C 34.3 °F /  1.3 °C 29.9in /  1010.8hPa ONO 12.5mph /  20.1km/h 25.3mph /  40.7km/h 33.2% 0in /  0.0mm
13:34 63.9 °F /  17.7 °C 34.2 °F /  1.2 °C 29.9in /  1010.8hPa ONO 12.4mph /  19.9km/h 25mph /  40.2km/h 33% 0in /  0.0mm
13:39 64 °F /  17.8 °C 34.3 °F /  1.3 °C 29.9in /  1010.8hPa NO 12.3mph /  19.8km/h 24.2mph /  38.9km/h 33% 0in /  0.0mm
13:44 64.2 °F /  17.9 °C 34.7 °F /  1.5 °C 29.8in /  1010.5hPa ONO 13mph /  21km/h 24.2mph /  38.9km/h 33.3% 0in /  0.0mm
13:49 64.2 °F /  17.9 °C 34.7 °F /  1.5 °C 29.8in /  1010.5hPa ONO 13.5mph /  21.7km/h 24.2mph /  38.9km/h 33.4% 0in /  0.0mm
13:54 64.2 °F /  17.9 °C 34.5 °F /  1.4 °C 29.8in /  1010.7hPa ONO 14.3mph /  23km/h 23mph /  37km/h 33% 0in /  0.0mm
13:59 64.4 °F /  18 °C 35.1 °F /  1.7 °C 29.8in /  1010.7hPa ONO 14.7mph /  23.7km/h 22mph /  35.4km/h 33.7% 0in /  0.0mm
14:04 64.6 °F /  18.1 °C 34.9 °F /  1.6 °C 29.8in /  1010.7hPa ONO 13.9mph /  22.4km/h 20.8mph /  33.5km/h 33.1% 0in /  0.0mm
14:09 64.8 °F /  18.2 °C 34.9 °F /  1.6 °C 29.8in /  1010.7hPa ONO 13.5mph /  21.7km/h 23mph /  37km/h 33% 0in /  0.0mm
14:14 64.8 °F /  18.2 °C 35.1 °F /  1.7 °C 29.8in /  1010.7hPa ONO 13.2mph /  21.2km/h 23mph /  37km/h 33% 0in /  0.0mm
14:19 64.9 °F /  18.3 °C 35.4 °F /  1.9 °C 29.8in /  1010.7hPa ONO 13mph /  20.9km/h 21mph /  33.8km/h 33.3% 0in /  0.0mm
14:24 64.9 °F /  18.3 °C 35.1 °F /  1.7 °C 29.8in /  1010.7hPa Oeste 11.6mph /  18.6km/h 20mph /  32.2km/h 32.8% 0in /  0.0mm
14:29 65.1 °F /  18.4 °C 34.9 °F /  1.6 °C 29.8in /  1010.3hPa Oeste 10.7mph /  17.2km/h 20.7mph /  33.3km/h 32.6% 0in /  0.0mm
14:34 65.3 °F /  18.5 °C 35.4 °F /  1.9 °C 29.8in /  1010.3hPa ONO 11.1mph /  17.9km/h 21mph /  33.8km/h 33% 0in /  0.0mm
14:39 65.3 °F /  18.5 °C 35.1 °F /  1.7 °C 29.8in /  1010.3hPa ONO 11.4mph /  18.4km/h 20.8mph /  33.5km/h 32.6% 0in /  0.0mm
14:44 65.1 °F /  18.4 °C 35.2 °F /  1.8 °C 29.8in /  1010.2hPa Oeste 12mph /  19.3km/h 21.5mph /  34.6km/h 32.9% 0in /  0.0mm
14:49 65.3 °F /  18.5 °C 34.9 °F /  1.6 °C 29.8in /  1010.2hPa ONO 12.3mph /  19.8km/h 23mph /  37km/h 32.4% 0in /  0.0mm
14:54 65.5 °F /  18.6 °C 35.6 °F /  2 °C 29.8in /  1010.2hPa ONO 11.6mph /  18.7km/h 23mph /  37km/h 33% 0in /  0.0mm
14:59 65.3 °F /  18.5 °C 35.4 °F /  1.9 °C 29.8in /  1010.2hPa Oeste 11.2mph /  18km/h 23mph /  37km/h 33% 0in /  0.0mm
15:04 65.5 °F /  18.6 °C 36 °F /  2.2 °C 29.8in /  1010.2hPa ONO 11.3mph /  18.2km/h 23mph /  37km/h 33.6% 0in /  0.0mm
15:09 65.7 °F /  18.7 °C 36 °F /  2.2 °C 29.8in /  1010.2hPa ONO 11.4mph /  18.4km/h 20.8mph /  33.5km/h 33.3% 0in /  0.0mm
15:14 65.7 °F /  18.7 °C 35.8 °F /  2.1 °C 29.8in /  1010.1hPa Oeste 11.7mph /  18.8km/h 23mph /  37km/h 33.1% 0in /  0.0mm
15:19 65.5 °F /  18.6 °C 35.6 °F /  2 °C 29.8in /  1010.1hPa Oeste 11.8mph /  19km/h 23mph /  37km/h 33% 0in /  0.0mm
15:24 65.5 °F /  18.6 °C 36.3 °F /  2.4 °C 29.8in /  1010.2hPa ONO 11.6mph /  18.6km/h 22mph /  35.4km/h 33.9% 0in /  0.0mm
15:29 65.7 °F /  18.7 °C 36.1 °F /  2.3 °C 29.8in /  1010.2hPa ONO 11.4mph /  18.4km/h 20.7mph /  33.3km/h 33.5% 0in /  0.0mm
15:34 65.5 °F /  18.6 °C 36 °F /  2.2 °C 29.8in /  1010.2hPa ONO 10.6mph /  17.1km/h 23mph /  37km/h 33.4% 0in /  0.0mm
15:39 65.5 °F /  18.6 °C 35.6 °F /  2 °C 29.8in /  1010.2hPa Oeste 10.2mph /  16.4km/h 23mph /  37km/h 33% 0in /  0.0mm
15:44 65.3 °F /  18.5 °C 35.4 °F /  1.9 °C 29.8in /  1010.2hPa Oeste 11.5mph /  18.5km/h 21mph /  33.8km/h 33% 0in /  0.0mm
15:49 65.7 °F /  18.7 °C 35.8 °F /  2.1 °C 29.8in /  1010.2hPa Oeste 12.3mph /  19.8km/h 16mph /  25.7km/h 33% 0in /  0.0mm
15:54 65.7 °F /  18.7 °C 34.9 °F /  1.6 °C 29.8in /  1010.2hPa ONO 9.6mph /  15.5km/h 25.6mph /  41.2km/h 31.8% 0in /  0.0mm
15:59 65.5 °F /  18.6 °C 34 °F /  1.1 °C 29.8in /  1010.2hPa ONO 8.1mph /  13km/h 26mph /  41.8km/h 31% 0in /  0.0mm
16:04 65.5 °F /  18.6 °C 34.7 °F /  1.5 °C 29.8in /  1010.2hPa Oeste 12.2mph /  19.6km/h 28.6mph /  46km/h 31.9% 0in /  0.0mm
16:09 65.5 °F /  18.6 °C 34.7 °F /  1.5 °C 29.8in /  1010.3hPa ONO 14.5mph /  23.3km/h 29mph /  46.7km/h 32% 0in /  0.0mm
16:14 65.3 °F /  18.5 °C 35.1 °F /  1.7 °C 29.8in /  1010.3hPa ONO 13.2mph /  21.2km/h 24mph /  38.6km/h 32.4% 0in /  0.0mm
16:19 65.3 °F /  18.5 °C 34.9 °F /  1.6 °C 29.8in /  1010.3hPa ONO 12.3mph /  19.8km/h 24.6mph /  39.6km/h 32.4% 0in /  0.0mm
16:24 65.1 °F /  18.4 °C 35.2 °F /  1.8 °C 29.8in /  1010.3hPa ONO 13.2mph /  21.2km/h 25mph /  40.2km/h 33% 0in /  0.0mm
16:29 65.3 °F /  18.5 °C 35.4 °F /  1.9 °C 29.8in /  1010.1hPa ONO 13.7mph /  22.1km/h 20mph /  32.2km/h 33% 0in /  0.0mm
16:34 65.3 °F /  18.5 °C 35.4 °F /  1.9 °C 29.8in /  1010.1hPa ONO 11.2mph /  18.1km/h 18.4mph /  29.6km/h 33% 0in /  0.0mm
16:39 65.1 °F /  18.4 °C 35.4 °F /  1.9 °C 29.8in /  1010.1hPa ONO 9.7mph /  15.6km/h 18.4mph /  29.6km/h 33% 0in /  0.0mm
16:44 65.1 °F /  18.4 °C 35.2 °F /  1.8 °C 29.8in /  1010.0hPa ONO 9.9mph /  15.9km/h 19.6mph /  31.5km/h 33% 0in /  0.0mm
16:49 65.1 °F /  18.4 °C 35.2 °F /  1.8 °C 29.8in /  1010.0hPa ONO 10mph /  16.1km/h 20mph /  32.2km/h 33% 0in /  0.0mm
16:54 65.1 °F /  18.4 °C 35.8 °F /  2.1 °C 29.8in /  1010.0hPa ONO 9.5mph /  15.3km/h 16.1mph /  25.9km/h 33.6% 0in /  0.0mm
16:59 64.9 °F /  18.3 °C 36 °F /  2.2 °C 29.8in /  1010.0hPa ONO 9.2mph /  14.8km/h 17.3mph /  27.8km/h 34% 0in /  0.0mm
17:04 64.9 °F /  18.3 °C 36 °F /  2.2 °C 29.8in /  1010.0hPa ONO 9.5mph /  15.3km/h 17.3mph /  27.8km/h 34% 0in /  0.0mm
17:09 64.9 °F /  18.3 °C 36 °F /  2.2 °C 29.8in /  1010.0hPa ONO 9.7mph /  15.6km/h 17.8mph /  28.6km/h 34% 0in /  0.0mm
17:14 64.9 °F /  18.3 °C 36 °F /  2.2 °C 29.8in /  1009.9hPa ONO 10mph /  16.1km/h 18mph /  29km/h 34% 0in /  0.0mm
17:19 64.9 °F /  18.3 °C 36 °F /  2.2 °C 29.8in /  1009.9hPa Oeste 10.2mph /  16.4km/h 16mph /  25.7km/h 34% 0in /  0.0mm
17:24 64.9 °F /  18.3 °C 36 °F /  2.2 °C 29.8in /  1009.9hPa Oeste 8.6mph /  13.8km/h 16.1mph /  25.9km/h 34% 0in /  0.0mm
17:29 64.9 °F /  18.3 °C 35.8 °F /  2.1 °C 29.8in /  1009.9hPa Oeste 7.6mph /  12.2km/h 16mph /  25.7km/h 34% 0in /  0.0mm
17:34 64.8 °F /  18.2 °C 35.8 °F /  2.1 °C 29.8in /  1009.9hPa Oeste 8.6mph /  13.9km/h 15mph /  24.1km/h 34% 0in /  0.0mm
17:39 64.8 °F /  18.2 °C 35.8 °F /  2.1 °C 29.8in /  1009.9hPa Oeste 9.2mph /  14.8km/h 15mph /  24.1km/h 34.2% 0in /  0.0mm
17:44 64.6 °F /  18.1 °C 36.3 °F /  2.4 °C 29.8in /  1009.9hPa Oeste 8.9mph /  14.3km/h 15mph /  24.1km/h 35% 0in /  0.0mm
17:49 64.2 °F /  17.9 °C 36.1 °F /  2.3 °C 29.8in /  1009.9hPa Oeste 8.7mph /  14km/h 18.5mph /  29.8km/h 35% 0in /  0.0mm
17:54 64 °F /  17.8 °C 36 °F /  2.2 °C 29.8in /  1009.9hPa Oeste 8.6mph /  13.8km/h 20.8mph /  33.5km/h 35% 0in /  0.0mm
17:59 64 °F /  17.8 °C 35.8 °F /  2.1 °C 29.8in /  1009.8hPa Oeste 8.5mph /  13.7km/h 21mph /  33.8km/h 35% 0in /  0.0mm
18:04 63.9 °F /  17.7 °C 35.8 °F /  2.1 °C 29.8in /  1009.8hPa Oeste 8.9mph /  14.4km/h 19.2mph /  30.9km/h 35% 0in /  0.0mm
18:09 63.9 °F /  17.7 °C 35.6 °F /  2 °C 29.8in /  1010.0hPa Oeste 9.2mph /  14.8km/h 20mph /  32.2km/h 35% 0in /  0.0mm
18:14 63.7 °F /  17.6 °C 35.4 °F /  1.9 °C 29.8in /  1010.0hPa OSO 9.5mph /  15.3km/h 19mph /  30.6km/h 35% 0in /  0.0mm
18:19 63.5 °F /  17.5 °C 35.6 °F /  2 °C 29.8in /  1010.0hPa OSO 9.7mph /  15.6km/h 20.7mph /  33.3km/h 35.4% 0in /  0.0mm
18:24 63.3 °F /  17.4 °C 36 °F /  2.2 °C 29.8in /  1010.1hPa OSO 7.9mph /  12.7km/h 21mph /  33.8km/h 36% 0in /  0.0mm
18:29 63.3 °F /  17.4 °C 35.8 °F /  2.1 °C 29.8in /  1010.1hPa OSO 6.9mph /  11.1km/h 16mph /  25.7km/h 36% 0in /  0.0mm
18:34 63.1 °F /  17.3 °C 35.8 °F /  2.1 °C 29.8in /  1010.1hPa OSO 6.3mph /  10.1km/h 13mph /  20.9km/h 36% 0in /  0.0mm
18:39 63 °F /  17.2 °C 35.6 °F /  2 °C 29.8in /  1010.2hPa SO 5.9mph /  9.5km/h 13mph /  20.9km/h 36% 0in /  0.0mm
18:44 63 °F /  17.2 °C 36.1 °F /  2.3 °C 29.8in /  1010.2hPa SO 4.9mph /  7.9km/h 10.4mph /  16.7km/h 36.7% 0in /  0.0mm
18:49 63 °F /  17.2 °C 36.1 °F /  2.3 °C 29.8in /  1010.2hPa SO 4.3mph /  6.9km/h 10mph /  16.1km/h 36.9% 0in /  0.0mm
18:54 63 °F /  17.2 °C 36.3 °F /  2.4 °C 29.8in /  1010.3hPa SO 4.5mph /  7.3km/h 10.2mph /  16.4km/h 37% 0in /  0.0mm
18:59 62.8 °F /  17.1 °C 36.1 °F /  2.3 °C 29.8in /  1010.3hPa OSO 4.7mph /  7.6km/h 10.4mph /  16.7km/h 37% 0in /  0.0mm
19:04 62.8 °F /  17.1 °C 36.1 °F /  2.3 °C 29.8in /  1010.3hPa OSO 5.2mph /  8.3km/h 9.7mph /  15.6km/h 37% 0in /  0.0mm
19:09 62.6 °F /  17 °C 36 °F /  2.2 °C 29.8in /  1010.4hPa OSO 5.4mph /  8.7km/h 12.5mph /  20.1km/h 37% 0in /  0.0mm
19:14 62.4 °F /  16.9 °C 35.8 °F /  2.1 °C 29.8in /  1010.4hPa Oeste 5.7mph /  9.2km/h 13mph /  20.9km/h 37% 0in /  0.0mm
19:19 62.2 °F /  16.8 °C 36.3 °F /  2.4 °C 29.8in /  1010.4hPa OSO 5.9mph /  9.5km/h 15mph /  24.1km/h 37.9% 0in /  0.0mm
19:24 62.1 °F /  16.7 °C 36.1 °F /  2.3 °C 29.8in /  1010.5hPa OSO 6.8mph /  11km/h 15mph /  24.1km/h 38% 0in /  0.0mm
19:29 62.1 °F /  16.7 °C 36.1 °F /  2.3 °C 29.8in /  1010.5hPa Oeste 7.4mph /  11.9km/h 15mph /  24.1km/h 38% 0in /  0.0mm
19:34 61.9 °F /  16.6 °C 36 °F /  2.2 °C 29.8in /  1010.5hPa Oeste 6.8mph /  10.9km/h 13mph /  20.9km/h 38% 0in /  0.0mm
19:39 61.5 °F /  16.4 °C 36 °F /  2.2 °C 29.8in /  1010.5hPa Oeste 6.4mph /  10.3km/h 12mph /  19.3km/h 38.3% 0in /  0.0mm
19:44 61.3 °F /  16.3 °C 36.3 °F /  2.4 °C 29.8in /  1010.5hPa ONO 5.7mph /  9.1km/h 10mph /  16.1km/h 39% 0in /  0.0mm
19:49 61.3 °F /  16.3 °C 36.1 °F /  2.3 °C 29.8in /  1010.5hPa NNO 5.2mph /  8.4km/h 7mph /  11.3km/h 39% 0in /  0.0mm
19:54 61 °F /  16.1 °C 36.5 °F /  2.5 °C 29.8in /  1010.7hPa NE 3.4mph /  5.5km/h 5mph /  8km/h 40% 0in /  0.0mm
19:59 60.6 °F /  15.9 °C 36.3 °F /  2.4 °C 29.8in /  1010.7hPa Este 2.4mph /  3.9km/h 5mph /  8km/h 40.2% 0in /  0.0mm
20:04 60.4 °F /  15.8 °C 36.5 °F /  2.5 °C 29.8in /  1010.7hPa ESE 2.4mph /  3.9km/h 4.6mph /  7.4km/h 41% 0in /  0.0mm
20:09 60.1 °F /  15.6 °C 36.7 °F /  2.6 °C 29.8in /  1010.7hPa SE 2.4mph /  3.9km/h 5.2mph /  8.4km/h 41.6% 0in /  0.0mm
20:14 59.7 °F /  15.4 °C 36.5 °F /  2.5 °C 29.8in /  1010.7hPa ESE 2.9mph /  4.6km/h 6.2mph /  10km/h 41.7% 0in /  0.0mm
20:19 59.9 °F /  15.5 °C 36.1 °F /  2.3 °C 29.8in /  1010.7hPa ESE 3.1mph /  5km/h 6mph /  9.7km/h 41.2% 0in /  0.0mm
20:24 60.1 °F /  15.6 °C 36.5 °F /  2.5 °C 29.9in /  1011.0hPa SE 3.4mph /  5.5km/h 6mph /  9.7km/h 41.2% 0in /  0.0mm
20:29 59.9 °F /  15.5 °C 36.5 °F /  2.5 °C 29.9in /  1011.0hPa SE 3.6mph /  5.8km/h 5mph /  8km/h 41.7% 0in /  0.0mm
20:34 59.7 °F /  15.4 °C 36.5 °F /  2.5 °C 29.9in /  1011.0hPa SE 2.6mph /  4.2km/h 5.2mph /  8.4km/h 42% 0in /  0.0mm
20:39 59.4 °F /  15.2 °C 36.3 °F /  2.4 °C 29.9in /  1011.0hPa SE 2mph /  3.2km/h 5.2mph /  8.4km/h 42% 0in /  0.0mm
20:44 59.4 °F /  15.2 °C 36.3 °F /  2.4 °C 29.9in /  1010.9hPa SE 2.2mph /  3.6km/h 5mph /  8km/h 42.2% 0in /  0.0mm
20:49 59.2 °F /  15.1 °C 36.1 °F /  2.3 °C 29.9in /  1010.9hPa SO 2.4mph /  3.9km/h 4.6mph /  7.4km/h 42.2% 0in /  0.0mm
20:54 59.4 °F /  15.2 °C 36.1 °F /  2.3 °C 29.9in /  1010.9hPa OSO 2.4mph /  3.9km/h 6.9mph /  11.1km/h 42% 0in /  0.0mm
20:59 59.5 °F /  15.3 °C 36.3 °F /  2.4 °C 29.9in /  1010.9hPa Oeste 2.4mph /  3.9km/h 7mph /  11.3km/h 42% 0in /  0.0mm
21:04 59.5 °F /  15.3 °C 36.3 °F /  2.4 °C 29.9in /  1010.9hPa SO 2.9mph /  4.6km/h 6mph /  9.7km/h 41.9% 0in /  0.0mm
21:09 59.5 °F /  15.3 °C 36.5 °F /  2.5 °C 29.9in /  1010.9hPa OSO 3.1mph /  5km/h 5mph /  8km/h 42% 0in /  0.0mm
21:14 59.5 °F /  15.3 °C 36.3 °F /  2.4 °C 29.9in /  1010.9hPa OSO 3mph /  4.8km/h 5.8mph /  9.3km/h 42% 0in /  0.0mm
21:19 59.4 °F /  15.2 °C 36.1 °F /  2.3 °C 29.9in /  1010.9hPa Oeste 2.9mph /  4.7km/h 8.1mph /  13km/h 42% 0in /  0.0mm
21:24 59.7 °F /  15.4 °C 36.3 °F /  2.4 °C 29.9in /  1011.1hPa OSO 4mph /  6.4km/h 17.3mph /  27.8km/h 41.7% 0in /  0.0mm
21:29 60.1 °F /  15.6 °C 36.3 °F /  2.4 °C 29.9in /  1011.1hPa Oeste 4.7mph /  7.6km/h 17mph /  27.4km/h 41% 0in /  0.0mm
21:34 59.9 °F /  15.5 °C 36.1 °F /  2.3 °C 29.9in /  1011.1hPa SO 5.8mph /  9.3km/h 10mph /  16.1km/h 41% 0in /  0.0mm
21:39 59.5 °F /  15.3 °C 36.3 °F /  2.4 °C 29.9in /  1011.1hPa OSO 6.4mph /  10.3km/h 7mph /  11.3km/h 41.8% 0in /  0.0mm
21:44 59.4 °F /  15.2 °C 36.1 °F /  2.3 °C 29.9in /  1011.1hPa OSO 4.6mph /  7.4km/h 7.4mph /  11.9km/h 42% 0in /  0.0mm
21:49 59.2 °F /  15.1 °C 36.1 °F /  2.3 °C 29.9in /  1011.1hPa Sur 3.6mph /  5.8km/h 7mph /  11.3km/h 42% 0in /  0.0mm
21:54 59 °F /  15 °C 36.5 °F /  2.5 °C 29.9in /  1011.1hPa SSE 3.9mph /  6.2km/h 8.1mph /  13km/h 43% 0in /  0.0mm
21:59 58.3 °F /  14.6 °C 36 °F /  2.2 °C 29.9in /  1011.1hPa SSE 4mph /  6.5km/h 8.1mph /  13km/h 43.1% 0in /  0.0mm
22:04 57.7 °F /  14.3 °C 36 °F /  2.2 °C 29.9in /  1011.1hPa SSE 4.8mph /  7.7km/h 8mph /  12.9km/h 44% 0in /  0.0mm
22:09 57.6 °F /  14.2 °C 35.8 °F /  2.1 °C 29.9in /  1011.1hPa Sur 5.2mph /  8.4km/h 7mph /  11.3km/h 44% 0in /  0.0mm
22:14 57.6 °F /  14.2 °C 35.8 °F /  2.1 °C 29.9in /  1011.0hPa Sur 4.2mph /  6.7km/h 7mph /  11.3km/h 44% 0in /  0.0mm
22:19 57.6 °F /  14.2 °C 35.8 °F /  2.1 °C 29.9in /  1011.0hPa SSO 3.6mph /  5.8km/h 5mph /  8km/h 44% 0in /  0.0mm
22:24 57.7 °F /  14.3 °C 36 °F /  2.2 °C 29.9in /  1011.0hPa SSO 3.2mph /  5.1km/h 5.2mph /  8.4km/h 44% 0in /  0.0mm
22:29 57.9 °F /  14.4 °C 35.8 °F /  2.1 °C 29.9in /  1010.9hPa SSO 2.9mph /  4.7km/h 5.8mph /  9.3km/h 43.4% 0in /  0.0mm
22:34 57.9 °F /  14.4 °C 35.6 °F /  2 °C 29.9in /  1010.9hPa SSO 3.4mph /  5.4km/h 6mph /  9.7km/h 43% 0in /  0.0mm
22:39 57.9 °F /  14.4 °C 35.6 °F /  2 °C 29.9in /  1010.9hPa SSO 3.6mph /  5.8km/h 5mph /  8km/h 43% 0in /  0.0mm
22:44 57.9 °F /  14.4 °C 35.4 °F /  1.9 °C 29.9in /  1010.8hPa SSO 3.2mph /  5.1km/h 5.8mph /  9.3km/h 43% 0in /  0.0mm
22:49 57.9 °F /  14.4 °C 35.4 °F /  1.9 °C 29.9in /  1010.8hPa SSO 2.9mph /  4.7km/h 6.2mph /  10km/h 43% 0in /  0.0mm
22:54 57.7 °F /  14.3 °C 35.4 °F /  1.9 °C 29.9in /  1010.8hPa SO 3.6mph /  5.8km/h 6.4mph /  10.3km/h 43% 0in /  0.0mm
22:59 57.6 °F /  14.2 °C 35.6 °F /  2 °C 29.8in /  1010.6hPa SO 4mph /  6.5km/h 7mph /  11.3km/h 43.5% 0in /  0.0mm
23:04 57.6 °F /  14.2 °C 35.6 °F /  2 °C 29.8in /  1010.6hPa OSO 4mph /  6.5km/h 6mph /  9.7km/h 43.8% 0in /  0.0mm
23:09 57.6 °F /  14.2 °C 35.8 °F /  2.1 °C 29.8in /  1010.6hPa OSO 4mph /  6.5km/h 6mph /  9.7km/h 43.9% 0in /  0.0mm
23:14 57.4 °F /  14.1 °C 35.6 °F /  2 °C 29.8in /  1010.5hPa SO 3.3mph /  5.3km/h 5mph /  8km/h 44% 0in /  0.0mm
23:19 57 °F /  13.9 °C 35.8 °F /  2.1 °C 29.8in /  1010.5hPa SO 2.9mph /  4.7km/h 5mph /  8km/h 44.7% 0in /  0.0mm
23:24 57 °F /  13.9 °C 35.6 °F /  2 °C 29.8in /  1010.5hPa SSO 2.9mph /  4.7km/h 5.8mph /  9.3km/h 44.4% 0in /  0.0mm
23:29 57 °F /  13.9 °C 35.2 °F /  1.8 °C 29.8in /  1010.3hPa SSO 2.9mph /  4.7km/h 6.2mph /  10km/h 44% 0in /  0.0mm
23:34 56.8 °F /  13.8 °C 35.1 °F /  1.7 °C 29.8in /  1010.3hPa SSO 3mph /  4.9km/h 6.2mph /  10km/h 44% 0in /  0.0mm
23:39 56.7 °F /  13.7 °C 35.4 °F /  1.9 °C 29.8in /  1010.3hPa SSO 3.1mph /  5km/h 6.4mph /  10.3km/h 44.6% 0in /  0.0mm
23:44 56.7 °F /  13.7 °C 35.4 °F /  1.9 °C 29.8in /  1009.9hPa SSO 3.4mph /  5.5km/h 7mph /  11.3km/h 45% 0in /  0.0mm
23:49 56.7 °F /  13.7 °C 35.4 °F /  1.9 °C 29.8in /  1009.9hPa SSO 3.6mph /  5.8km/h 6.2mph /  10km/h 45% 0in /  0.0mm
23:54 56.7 °F /  13.7 °C 35.4 °F /  1.9 °C 29.8in /  1009.9hPa SSO 3.6mph /  5.8km/h 6mph /  9.7km/h 45% 0in /  0.0mm
23:59 56.7 °F /  13.7 °C 35.4 °F /  1.9 °C 29.8in /  1009.9hPa SSO 3.6mph /  5.8km/h 6mph /  9.7km/h 45% 0in /  0.0mm
Murcia-Puente Tocinos, España
Compliments of Weather Underground - 3 mb

La estación de MeteoMurcia.com, publica sus datos en los siguientes proyectos:

Weather Underground PWS IMURCIAP2 Meteoclimatic www.awekas.at

W3Counter
Web Analytics